createdAt,value
2023-05-22T00:00:40.192Z,9.40
2023-05-22T00:06:45.990Z,8.68
2023-05-22T00:12:49.763Z,9.52
2023-05-22T00:18:58.694Z,9.18
2023-05-22T00:25:04.122Z,8.82
2023-05-22T00:31:08.027Z,9.88
2023-05-22T00:37:12.509Z,11.35
2023-05-22T00:43:18.524Z,11.95
2023-05-22T00:49:22.585Z,12.60
2023-05-22T00:55:25.284Z,13.02
2023-05-22T01:01:34.468Z,13.27
2023-05-22T01:07:38.617Z,12.38
2023-05-22T01:13:52.993Z,12.52
2023-05-22T01:20:14.532Z,13.75
2023-05-22T01:26:54.852Z,13.30
2023-05-22T01:33:02.797Z,13.52
2023-05-22T01:39:08.727Z,12.68
2023-05-22T01:45:13.480Z,12.85
2023-05-22T01:51:39.997Z,12.65
2023-05-22T01:57:58.504Z,13.95
2023-05-22T02:04:04.848Z,14.45
2023-05-22T02:10:11.938Z,13.15
2023-05-22T02:16:15.801Z,15.00
2023-05-22T02:22:19.664Z,14.60
2023-05-22T02:28:23.561Z,14.30
2023-05-22T02:34:27.712Z,14.57
2023-05-22T02:40:40.009Z,14.63
2023-05-22T02:46:43.714Z,14.30
2023-05-22T02:52:46.333Z,13.55
2023-05-22T02:58:49.669Z,13.57
2023-05-22T03:04:52.895Z,11.93
2023-05-22T03:10:57.403Z,11.75
2023-05-22T03:17:00.876Z,11.27
2023-05-22T03:23:11.554Z,10.77
2023-05-22T03:29:20.998Z,10.20
2023-05-22T03:35:30.172Z,11.32
2023-05-22T03:41:33.791Z,11.10
2023-05-22T03:47:37.541Z,10.05
2023-05-22T03:53:41.889Z,10.40
2023-05-22T03:59:45.787Z,10.50
2023-05-22T04:11:59.104Z,9.48
2023-05-22T04:18:02.335Z,10.43
2023-05-22T04:24:09.626Z,10.00
2023-05-22T04:30:18.358Z,9.93
2023-05-22T04:36:27.444Z,9.77
2023-05-22T04:42:32.006Z,10.60
2023-05-22T04:48:39.880Z,10.07
2023-05-22T04:54:47.586Z,9.00
2023-05-22T05:00:55.120Z,8.65
2023-05-22T05:07:06.432Z,10.50
2023-05-22T05:13:13.858Z,10.57
2023-05-22T05:19:18.514Z,8.80
2023-05-22T05:25:22.126Z,9.73
2023-05-22T05:31:26.444Z,8.68
2023-05-22T05:37:29.961Z,9.63
2023-05-22T05:43:33.775Z,10.23
2023-05-22T05:55:52.295Z,9.65
2023-05-22T06:02:01.270Z,10.05
2023-05-22T06:08:12.489Z,10.15
2023-05-22T06:14:21.709Z,9.38
2023-05-22T06:20:40.442Z,9.65
2023-05-22T06:26:49.250Z,9.85
2023-05-22T06:32:59.135Z,8.50
2023-05-22T06:39:11.242Z,8.70
2023-05-22T06:45:23.677Z,8.73
2023-05-22T06:51:32.737Z,9.10
2023-05-22T06:57:41.184Z,8.93
2023-05-22T07:03:51.040Z,9.45
2023-05-22T07:09:58.816Z,9.50
2023-05-22T07:16:09.496Z,8.60
2023-05-22T07:22:29.635Z,8.55
2023-05-22T07:28:34.306Z,8.48
2023-05-22T07:34:40.457Z,8.82
2023-05-22T07:40:46.044Z,7.57
2023-05-22T07:46:50.417Z,8.98
2023-05-22T07:52:54.458Z,7.88
2023-05-22T07:58:58.309Z,9.07
2023-05-22T08:05:02.530Z,8.88
2023-05-22T08:11:06.662Z,8.68
2023-05-22T08:17:12.225Z,8.30
2023-05-22T08:23:16.019Z,9.25
2023-05-22T08:29:21.033Z,8.15
2023-05-22T08:35:24.465Z,7.82
2023-05-22T08:47:34.090Z,8.15
2023-05-22T08:53:41.980Z,8.15
2023-05-22T08:59:46.435Z,8.70
2023-05-22T09:05:51.038Z,8.75
2023-05-22T09:11:56.186Z,8.38
2023-05-22T09:18:00.921Z,8.50
2023-05-22T09:24:03.869Z,8.88
2023-05-22T09:30:11.297Z,8.73
2023-05-22T09:36:17.143Z,8.38
2023-05-22T09:42:37.698Z,7.70
2023-05-22T09:48:41.532Z,8.50
2023-05-22T09:54:57.124Z,8.32
2023-05-22T10:01:02.905Z,8.23
2023-05-22T10:07:06.957Z,7.75
2023-05-22T10:13:17.949Z,8.52
2023-05-22T10:19:22.839Z,7.07
2023-05-22T10:25:26.676Z,8.13
2023-05-22T10:32:24.673Z,8.45
2023-05-22T10:38:50.875Z,8.35
2023-05-22T10:44:54.665Z,7.63
2023-05-22T10:50:59.808Z,7.53
2023-05-22T10:57:17.910Z,7.25
2023-05-22T11:03:24.077Z,8.18
2023-05-22T11:09:47.732Z,7.55
2023-05-22T11:15:51.692Z,6.82
2023-05-22T11:22:08.903Z,7.20
2023-05-22T11:28:13.608Z,7.95
2023-05-22T11:34:17.698Z,8.57
2023-05-22T11:40:25.895Z,7.38
2023-05-22T11:46:31.292Z,7.55
2023-05-22T11:52:37.826Z,7.82
2023-05-22T11:58:41.864Z,7.72
2023-05-22T12:04:45.708Z,7.38
2023-05-22T12:10:55.133Z,8.25
2023-05-22T12:17:07.325Z,7.75
2023-05-22T12:23:27.269Z,8.70
2023-05-22T12:29:31.131Z,8.43
2023-05-22T12:35:35.144Z,7.55
2023-05-22T12:41:39.234Z,8.38
2023-05-22T12:47:43.259Z,7.30
2023-05-22T12:53:46.521Z,7.30
2023-05-22T12:59:49.561Z,8.10
2023-05-22T13:05:52.285Z,7.78
2023-05-22T13:17:59.528Z,7.85
2023-05-22T13:24:02.225Z,7.25
2023-05-22T13:36:08.543Z,8.48
2023-05-22T13:42:12.598Z,13.40
2023-05-22T13:48:16.615Z,8.23
2023-05-22T13:54:20.692Z,9.38
2023-05-22T14:00:26.449Z,7.53
2023-05-22T14:06:33.282Z,7.75
2023-05-22T14:12:36.760Z,7.88
2023-05-22T14:18:40.277Z,8.23
2023-05-22T14:24:45.650Z,6.30
2023-05-22T14:30:53.139Z,6.13
2023-05-22T14:36:58.870Z,5.50
2023-05-22T14:43:02.003Z,5.97
2023-05-22T14:49:05.193Z,5.68
2023-05-22T14:55:08.209Z,5.45
2023-05-22T15:01:11.348Z,4.85
2023-05-22T15:07:14.542Z,4.60
2023-05-22T15:13:17.236Z,5.38
2023-05-22T15:19:20.112Z,5.40
2023-05-22T15:25:22.669Z,8.30
2023-05-22T15:31:31.145Z,7.72
2023-05-22T15:37:37.322Z,7.43
2023-05-22T15:43:41.450Z,6.90
2023-05-22T15:49:44.055Z,6.78
2023-05-22T15:55:49.070Z,7.35
2023-05-22T16:01:54.224Z,6.57
2023-05-22T16:07:57.519Z,6.82
2023-05-22T16:14:01.458Z,6.88
2023-05-22T16:20:06.019Z,7.53
2023-05-22T16:26:10.043Z,7.30
2023-05-22T16:32:13.478Z,6.68
2023-05-22T16:38:17.117Z,6.40
2023-05-22T16:44:23.011Z,6.32
2023-05-22T16:50:26.236Z,7.57
2023-05-22T16:56:29.853Z,7.07
2023-05-22T17:19:29.197Z,7.20
2023-05-22T17:25:32.806Z,7.95
2023-05-22T17:31:41.949Z,8.20
2023-05-22T17:37:44.403Z,7.93
2023-05-22T17:43:46.401Z,8.27
2023-05-22T17:49:48.825Z,8.40
2023-05-22T17:55:54.421Z,8.43
2023-05-22T18:02:03.300Z,8.63
2023-05-22T18:08:06.634Z,7.28
2023-05-22T18:14:08.757Z,8.20
2023-05-22T18:20:17.279Z,9.48
2023-05-22T18:26:19.694Z,9.18
2023-05-22T18:32:24.932Z,10.30
2023-05-22T18:38:27.857Z,10.00
2023-05-22T18:44:30.332Z,10.85
2023-05-22T18:50:32.446Z,10.82
2023-05-22T18:56:34.593Z,10.55
2023-05-22T19:02:39.099Z,10.05
2023-05-22T19:08:41.093Z,9.77
2023-05-22T19:14:42.989Z,8.45
2023-05-22T19:20:45.088Z,7.20
2023-05-22T19:26:47.232Z,6.40
2023-05-22T19:32:56.097Z,6.05
2023-05-22T19:38:58.120Z,6.55
2023-05-22T19:45:00.073Z,4.25
2023-05-22T19:51:03.993Z,4.65
2023-05-22T19:57:06.223Z,5.45
2023-05-22T20:03:08.423Z,5.60
2023-05-22T20:09:11.056Z,6.53
2023-05-22T20:15:14.996Z,5.80
2023-05-22T20:21:17.815Z,5.85
2023-05-22T20:27:20.099Z,5.90
2023-05-22T20:33:22.000Z,6.80
2023-05-22T20:39:24.087Z,7.45
2023-05-22T20:45:26.557Z,8.00
2023-05-22T20:51:32.716Z,9.07
2023-05-22T20:57:35.048Z,10.10
2023-05-22T21:03:37.635Z,11.40
2023-05-22T21:09:39.651Z,14.02
2023-05-22T21:15:41.601Z,13.98
2023-05-22T21:21:43.713Z,15.02
2023-05-22T21:27:48.374Z,17.77
2023-05-22T21:33:50.432Z,21.55
2023-05-22T21:39:52.352Z,22.80
2023-05-22T21:45:54.784Z,23.23
2023-05-22T21:51:56.787Z,30.50
2023-05-22T21:57:58.744Z,37.05
2023-05-22T22:04:00.748Z,38.42
2023-05-22T22:10:02.980Z,34.80
2023-05-22T22:16:05.861Z,34.75
2023-05-22T22:22:07.775Z,32.10
2023-05-22T22:28:09.865Z,30.20
2023-05-22T22:34:11.899Z,28.92
2023-05-22T22:40:15.156Z,26.08
2023-05-22T22:46:17.419Z,24.00
2023-05-22T22:52:20.195Z,24.08
2023-05-22T22:58:22.855Z,22.67
2023-05-22T23:04:25.075Z,25.33
2023-05-22T23:10:27.439Z,24.75
2023-05-22T23:16:29.992Z,25.60
2023-05-22T23:22:32.354Z,26.95
2023-05-22T23:28:34.492Z,26.00
2023-05-22T23:34:36.786Z,24.75
2023-05-22T23:40:42.637Z,23.50
2023-05-22T23:46:44.915Z,23.23
2023-05-22T23:52:48.600Z,21.55
2023-05-22T23:58:51.063Z,17.95
